<?xml version="1.0" encoding="UTF-8" standalone="no" ?>
<gpx xmlns="http://www.topografix.com/GPX/1/1" xmlns:xsi="http://www.w3.org/2001/XMLSchema-instance" xsi:schemaLocation="http://www.topografix.com/GPX/1/1 http://www.topografix.com/GPX/1/1/gpx.xsd" version="1.1" creator="VisuGPX - https://www.visugpx.com">
  <metadata>
    <name>Bagnols -Pennafort -Fille d'Isnard</name>
    <desc><![CDATA[avec RA]]></desc>
  </metadata>
  <trk>
    <name><![CDATA[Bagnols -Pennafort -Fille d'Isnard_15]]></name>
    <extensions>
      <line xmlns="http://www.topografix.com/GPX/gpx_style/0/2">
        <color>FF0000</color>
        <opacity>1</opacity>
        <width>4</width>
      </line>
    </extensions>
    <trkseg>
      <trkpt lat="43.5544" lon="6.79431">
        <ele>149.9</ele>
        <time>2025-10-24T06:20:51.000Z</time>
      </trkpt>
      <trkpt lat="43.55438" lon="6.79432">
        <ele>149.9</ele>
        <time>2025-10-24T06:20:52.000Z</time>
      </trkpt>
      <trkpt lat="43.55435" lon="6.79433">
        <ele>150</ele>
        <time>2025-10-24T06:20:53.000Z</time>
      </trkpt>
      <trkpt lat="43.55433" lon="6.79434">
        <ele>150.1</ele>
        <time>2025-10-24T06:20:54.000Z</time>
      </trkpt>
      <trkpt lat="43.5543" lon="6.79436">
        <ele>150.2</ele>
        <time>2025-10-24T06:20:55.000Z</time>
      </trkpt>
      <trkpt lat="43.55428" lon="6.79437">
        <ele>150.3</ele>
        <time>2025-10-24T06:20:56.000Z</time>
      </trkpt>
      <trkpt lat="43.55426" lon="6.79437">
        <ele>150.3</ele>
        <time>2025-10-24T06:20:57.000Z</time>
      </trkpt>
      <trkpt lat="43.55423" lon="6.79438">
        <ele>150.4</ele>
        <time>2025-10-24T06:20:58.000Z</time>
      </trkpt>
      <trkpt lat="43.5542" lon="6.79439">
        <ele>150.5</ele>
        <time>2025-10-24T06:20:59.000Z</time>
      </trkpt>
      <trkpt lat="43.55417" lon="6.7944">
        <ele>150.5</ele>
        <time>2025-10-24T06:21:00.000Z</time>
      </trkpt>
      <trkpt lat="43.55414" lon="6.79441">
        <ele>150.6</ele>
        <time>2025-10-24T06:21:01.000Z</time>
      </trkpt>
      <trkpt lat="43.55411" lon="6.79442">
        <ele>150.6</ele>
        <time>2025-10-24T06:21:02.000Z</time>
      </trkpt>
      <trkpt lat="43.55408" lon="6.79443">
        <ele>150.7</ele>
        <time>2025-10-24T06:21:03.000Z</time>
      </trkpt>
      <trkpt lat="43.55405" lon="6.79445">
        <ele>150.7</ele>
        <time>2025-10-24T06:21:04.000Z</time>
      </trkpt>
      <trkpt lat="43.55401" lon="6.79446">
        <ele>150.8</ele>
        <time>2025-10-24T06:21:05.000Z</time>
      </trkpt>
      <trkpt lat="43.55398" lon="6.79448">
        <ele>150.8</ele>
        <time>2025-10-24T06:21:06.000Z</time>
      </trkpt>
      <trkpt lat="43.55396" lon="6.7945">
        <ele>150.9</ele>
        <time>2025-10-24T06:21:07.000Z</time>
      </trkpt>
      <trkpt lat="43.55393" lon="6.79452">
        <ele>150.9</ele>
        <time>2025-10-24T06:21:08.000Z</time>
      </trkpt>
      <trkpt lat="43.5539" lon="6.79454">
        <ele>151</ele>
        <time>2025-10-24T06:21:09.000Z</time>
      </trkpt>
      <trkpt lat="43.55387" lon="6.79457">
        <ele>151</ele>
        <time>2025-10-24T06:21:10.000Z</time>
      </trkpt>
      <trkpt lat="43.55385" lon="6.7946">
        <ele>151.1</ele>
        <time>2025-10-24T06:21:11.000Z</time>
      </trkpt>
      <trkpt lat="43.55382" lon="6.79463">
        <ele>151.1</ele>
        <time>2025-10-24T06:21:12.000Z</time>
      </trkpt>
      <trkpt lat="43.5538" lon="6.79466">
        <ele>151.2</ele>
        <time>2025-10-24T06:21:13.000Z</time>
      </trkpt>
      <trkpt lat="43.55377" lon="6.79469">
        <ele>151.2</ele>
        <time>2025-10-24T06:21:14.000Z</time>
      </trkpt>
      <trkpt lat="43.55375" lon="6.79472">
        <ele>151.2</ele>
        <time>2025-10-24T06:21:15.000Z</time>
      </trkpt>
      <trkpt lat="43.55372" lon="6.79476">
        <ele>151.2</ele>
        <time>2025-10-24T06:21:16.000Z</time>
      </trkpt>
      <trkpt lat="43.55369" lon="6.79479">
        <ele>151.2</ele>
        <time>2025-10-24T06:21:17.000Z</time>
      </trkpt>
      <trkpt lat="43.55367" lon="6.79482">
        <ele>151.2</ele>
        <time>2025-10-24T06:21:18.000Z</time>
      </trkpt>
      <trkpt lat="43.55364" lon="6.79485">
        <ele>151.2</ele>
        <time>2025-10-24T06:21:19.000Z</time>
      </trkpt>
      <trkpt lat="43.55362" lon="6.79487">
        <ele>151.2</ele>
        <time>2025-10-24T06:21:20.000Z</time>
      </trkpt>
      <trkpt lat="43.55359" lon="6.7949">
        <ele>151.2</ele>
        <time>2025-10-24T06:21:21.000Z</time>
      </trkpt>
      <trkpt lat="43.55356" lon="6.79493">
        <ele>151.1</ele>
        <time>2025-10-24T06:21:22.000Z</time>
      </trkpt>
      <trkpt lat="43.55353" lon="6.79495">
        <ele>151.1</ele>
        <time>2025-10-24T06:21:23.000Z</time>
      </trkpt>
      <trkpt lat="43.55351" lon="6.79498">
        <ele>151.1</ele>
        <time>2025-10-24T06:21:24.000Z</time>
      </trkpt>
      <trkpt lat="43.55348" lon="6.79501">
        <ele>151.1</ele>
        <time>2025-10-24T06:21:25.000Z</time>
      </trkpt>
      <trkpt lat="43.55346" lon="6.79504">
        <ele>151</ele>
        <time>2025-10-24T06:21:26.000Z</time>
      </trkpt>
      <trkpt lat="43.55343" lon="6.79507">
        <ele>151</ele>
        <time>2025-10-24T06:21:27.000Z</time>
      </trkpt>
      <trkpt lat="43.5534" lon="6.7951">
        <ele>151</ele>
        <time>2025-10-24T06:21:28.000Z</time>
      </trkpt>
      <trkpt lat="43.55337" lon="6.79513">
        <ele>150.9</ele>
        <time>2025-10-24T06:21:29.000Z</time>
      </trkpt>
      <trkpt lat="43.55334" lon="6.79515">
        <ele>150.9</ele>
        <time>2025-10-24T06:21:30.000Z</time>
      </trkpt>
      <trkpt lat="43.55331" lon="6.79517">
        <ele>150.9</ele>
        <time>2025-10-24T06:21:31.000Z</time>
      </trkpt>
      <trkpt lat="43.55328" lon="6.79519">
        <ele>150.9</ele>
        <time>2025-10-24T06:21:32.000Z</time>
      </trkpt>
      <trkpt lat="43.55324" lon="6.79521">
        <ele>150.8</ele>
        <time>2025-10-24T06:21:33.000Z</time>
      </trkpt>
      <trkpt lat="43.55321" lon="6.79523">
        <ele>150.8</ele>
        <time>2025-10-24T06:21:34.000Z</time>
      </trkpt>
      <trkpt lat="43.55318" lon="6.79525">
        <ele>150.8</ele>
        <time>2025-10-24T06:21:35.000Z</time>
      </trkpt>
      <trkpt lat="43.55315" lon="6.79527">
        <ele>150.8</ele>
        <time>2025-10-24T06:21:36.000Z</time>
      </trkpt>
      <trkpt lat="43.55312" lon="6.79529">
        <ele>150.8</ele>
        <time>2025-10-24T06:21:37.000Z</time>
      </trkpt>
      <trkpt lat="43.55309" lon="6.79532">
        <ele>150.9</ele>
        <time>2025-10-24T06:21:38.000Z</time>
      </trkpt>
      <trkpt lat="43.55307" lon="6.79535">
        <ele>150.9</ele>
        <time>2025-10-24T06:21:39.000Z</time>
      </trkpt>
      <trkpt lat="43.55304" lon="6.79537">
        <ele>150.9</ele>
        <time>2025-10-24T06:21:40.000Z</time>
        <extensions>
          <visugpx:TrkExtension xmlns:visugpx="https://www.visugpx.com/editgpx/">
            <visugpx:node>1</visugpx:node>
            </visugpx:TrkExtension>
        </extensions>
      </trkpt>
    </trkseg>
  </trk>
</gpx>